Time;durP1;ratioP1;P1;durP2;ratioP2;P2;SDS_P1;SDS_P2;PMS_P1;PMS_P2;Temp;Humidity;BMP_temperature;BMP_pressure;BME280_temperature;BME280_humidity;BME280_pressure;Samples;Min_cycle;Max_cycle;Signal;HPM_P1;HPM_P2
2023/08/31 00:01:09;;;;;;;3.40;3.10;;;14.70;1.00;;;;;;5051766;28;20880;-86
2023/08/31 00:03:35;;;;;;;3.10;2.90;;;14.60;1.00;;;;;;5050592;28;20392;-86
2023/08/31 00:06:04;;;;;;;3.25;2.80;;;14.60;1.00;;;;;;5049476;28;20397;-85
2023/08/31 00:08:30;;;;;;;2.67;2.47;;;14.50;1.00;;;;;;5049759;28;20943;-86
2023/08/31 00:10:57;;;;;;;3.00;2.70;;;14.50;1.00;;;;;;5049292;28;20439;-85
2023/08/31 00:13:22;;;;;;;3.63;2.70;;;14.50;1.00;;;;;;5049520;28;20404;-86
2023/08/31 00:15:48;;;;;;;3.97;2.53;;;14.40;1.00;;;;;;5050809;28;20382;-85
2023/08/31 00:18:16;;;;;;;3.30;2.60;;;14.30;1.00;;;;;;5050691;28;20389;-86
2023/08/31 00:20:42;;;;;;;3.10;2.80;;;14.40;1.00;;;;;;5050327;28;20401;-86
2023/08/31 00:23:09;;;;;;;3.15;2.70;;;14.40;1.00;;;;;;5049036;28;20717;-86
2023/08/31 00:25:34;;;;;;;5.70;2.50;;;14.40;1.00;;;;;;5050488;28;20780;-85
2023/08/31 00:28:04;;;;;;;2.50;2.30;;;14.40;1.00;;;;;;5049133;28;20402;-86
2023/08/31 00:30:31;;;;;;;3.55;2.58;;;14.40;1.00;;;;;;5048978;28;20394;-86
2023/08/31 00:32:59;;;;;;;2.70;2.40;;;14.40;1.00;;;;;;5048790;28;20430;-85
2023/08/31 00:35:26;;;;;;;4.18;3.15;;;14.30;1.00;;;;;;5049257;28;20392;-85
2023/08/31 00:37:56;;;;;;;3.20;2.30;;;14.30;1.00;;;;;;5050542;28;20389;-87
2023/08/31 00:40:22;;;;;;;3.10;2.40;;;14.30;1.00;;;;;;5048880;28;20789;-86
2023/08/31 00:42:48;;;;;;;3.03;2.72;;;14.30;1.00;;;;;;5049891;28;20401;-87
2023/08/31 00:45:13;;;;;;;2.50;2.30;;;14.80;1.00;;;;;;5050239;28;20703;-87
2023/08/31 00:47:39;;;;;;;3.08;2.60;;;14.40;1.00;;;;;;5049662;28;20500;-85
2023/08/31 00:50:07;;;;;;;3.35;2.42;;;14.30;1.00;;;;;;5040017;28;20430;-84
2023/08/31 00:52:33;;;;;;;2.60;2.10;;;14.40;1.00;;;;;;5032803;28;20931;-85
2023/08/31 00:55:00;;;;;;;3.10;2.30;;;14.30;1.00;;;;;;5031279;28;20430;-85
2023/08/31 00:57:27;;;;;;;4.10;2.40;;;14.30;1.00;;;;;;5030931;28;20911;-84
2023/08/31 00:59:55;;;;;;;3.40;2.20;;;14.30;1.00;;;;;;5035007;28;20851;-86
2023/08/31 01:02:34;;;;;;;2.10;1.90;;;14.30;1.00;;;;;;5054154;28;20400;-85
2023/08/31 01:05:14;;;;;;;2.33;2.10;;;14.30;1.00;;;;;;5052588;28;20820;-85
2023/08/31 01:07:56;;;;;;;3.08;2.00;;;14.30;1.00;;;;;;5056329;28;20583;-85
2023/08/31 01:10:34;;;;;;;2.50;1.90;;;14.30;1.00;;;;;;5050329;28;20821;-86
2023/08/31 01:13:13;;;;;;;2.70;1.90;;;14.30;1.00;;;;;;5043492;28;20478;-86
2023/08/31 01:15:44;;;;;;;2.20;2.00;;;14.10;1.00;;;;;;5053475;28;20385;-85
2023/08/31 01:18:11;;;;;;;2.50;2.00;;;14.20;1.00;;;;;;5051515;28;20389;-85
2023/08/31 01:21:17;;;;;;;1.95;1.85;;;14.30;1.00;;;;;;5057943;28;20937;-85
2023/08/31 01:23:53;;;;;;;2.33;2.05;;;14.30;1.00;;;;;;5054853;28;20500;-85
2023/08/31 01:26:20;;;;;;;2.40;1.60;;;14.30;1.00;;;;;;5055941;28;20897;-85
2023/08/31 01:28:47;;;;;;;2.42;2.17;;;14.30;1.00;;;;;;5058121;28;20435;-85
2023/08/31 01:31:14;;;;;;;2.57;1.97;;;14.30;1.00;;;;;;5054819;28;20420;-85
2023/08/31 01:33:40;;;;;;;4.30;1.90;;;14.30;1.00;;;;;;5039966;28;20475;-85
2023/08/31 01:36:13;;;;;;;1.87;1.70;;;14.20;1.00;;;;;;5041344;28;20422;-85
2023/08/31 01:38:43;;;;;;;2.20;2.00;;;14.40;1.00;;;;;;5038411;28;20388;-85
2023/08/31 01:41:13;;;;;;;1.90;1.80;;;14.50;1.00;;;;;;5039543;28;20867;-85
2023/08/31 01:43:41;;;;;;;3.00;2.17;;;14.50;1.00;;;;;;5049596;28;20912;-85
2023/08/31 01:46:07;;;;;;;3.40;1.90;;;14.40;1.00;;;;;;5058980;28;20435;-85
2023/08/31 01:48:40;;;;;;;2.10;1.90;;;14.40;1.00;;;;;;5057191;28;20405;-85
2023/08/31 01:51:07;;;;;;;2.92;2.10;;;14.30;1.00;;;;;;5057840;28;20446;-86
2023/08/31 01:53:32;;;;;;;2.65;2.10;;;14.30;1.00;;;;;;5056259;28;20388;-85
2023/08/31 01:55:58;;;;;;;4.32;2.10;;;14.30;1.00;;;;;;5054368;28;20761;-86
2023/08/31 01:58:23;;;;;;;3.57;2.60;;;14.30;1.00;;;;;;5056713;28;20919;-85
2023/08/31 02:00:49;;;;;;;3.10;2.40;;;14.60;1.00;;;;;;5057942;28;20882;-84
2023/08/31 02:03:14;;;;;;;2.40;2.20;;;14.60;1.00;;;;;;5060614;28;20432;-85
2023/08/31 02:05:40;;;;;;;2.30;2.10;;;14.70;1.00;;;;;;5060485;28;20389;-86
2023/08/31 02:10:41;;;;;;;3.40;2.40;;;14.60;1.00;;;;;;5051855;28;20425;-88
2023/08/31 02:13:06;;;;;;;2.57;2.30;;;14.60;1.00;;;;;;5051751;28;20385;-88
2023/08/31 02:15:32;;;;;;;2.83;2.05;;;14.40;1.00;;;;;;5052445;28;20395;-88
2023/08/31 02:17:57;;;;;;;2.90;2.20;;;14.60;1.00;;;;;;5051749;28;20480;-88
2023/08/31 02:20:24;;;;;;;2.47;1.93;;;13.70;1.00;;;;;;5073818;28;20381;-88
2023/08/31 02:22:50;;;;;;;2.58;1.98;;;14.60;1.00;;;;;;5072549;28;20488;-88
2023/08/31 02:25:16;;;;;;;2.30;1.67;;;14.90;1.00;;;;;;5058659;28;20381;-88
2023/08/31 02:27:42;;;;;;;2.50;1.60;;;14.00;1.00;;;;;;5067701;28;20401;-87
2023/08/31 02:30:08;;;;;;;3.30;1.85;;;15.30;1.00;;;;;;5067406;28;20409;-88
2023/08/31 02:32:34;;;;;;;3.83;1.75;;;14.70;1.00;;;;;;5058314;28;20825;-88
2023/08/31 02:34:59;;;;;;;2.30;1.50;;;14.60;1.00;;;;;;5052952;28;20401;-88
2023/08/31 02:37:25;;;;;;;2.00;1.80;;;14.70;1.00;;;;;;5051140;28;20393;-88
2023/08/31 02:39:51;;;;;;;2.28;1.58;;;14.70;1.00;;;;;;5052375;28;20460;-88
2023/08/31 02:42:17;;;;;;;2.65;1.70;;;14.60;1.00;;;;;;5051886;28;20905;-88
2023/08/31 02:44:42;;;;;;;2.75;1.70;;;15.50;1.00;;;;;;5069451;28;20384;-88
2023/08/31 02:47:08;;;;;;;2.10;1.77;;;16.40;1.00;;;;;;5053037;28;20477;-89
2023/08/31 02:49:33;;;;;;;2.13;1.80;;;15.30;1.00;;;;;;5051494;28;20390;-88
2023/08/31 02:51:59;;;;;;;2.40;1.40;;;14.50;1.00;;;;;;5053218;28;20463;-88
2023/08/31 02:54:25;;;;;;;3.00;1.80;;;13.30;1.00;;;;;;5051360;28;20497;-88
2023/08/31 02:56:50;;;;;;;3.17;2.00;;;14.60;1.00;;;;;;5051089;28;20381;-88
2023/08/31 02:59:17;;;;;;;1.90;1.70;;;14.60;1.00;;;;;;5050744;28;20492;-88
2023/08/31 03:01:46;;;;;;;1.88;1.70;;;14.50;1.00;;;;;;5052875;28;20389;-88
2023/08/31 03:04:12;;;;;;;3.40;2.00;;;16.30;1.00;;;;;;5050691;28;20389;-86
2023/08/31 03:06:37;;;;;;;2.75;1.90;;;14.40;1.00;;;;;;5051733;28;20480;-88
2023/08/31 03:09:03;;;;;;;3.70;1.97;;;14.20;1.00;;;;;;5052037;28;20881;-88
2023/08/31 03:11:30;;;;;;;2.60;1.80;;;14.30;1.00;;;;;;5051721;28;20884;-88
2023/08/31 03:13:55;;;;;;;3.03;1.80;;;14.30;1.00;;;;;;5052062;28;20764;-90
2023/08/31 03:16:21;;;;;;;2.30;1.80;;;14.30;1.00;;;;;;5050562;28;20381;-88
2023/08/31 03:18:46;;;;;;;2.97;1.52;;;14.40;1.00;;;;;;5051800;28;20393;-89
2023/08/31 03:21:12;;;;;;;4.53;2.10;;;13.50;1.00;;;;;;5050391;28;20450;-88
2023/08/31 03:23:37;;;;;;;3.50;1.90;;;15.80;1.00;;;;;;5050658;28;20478;-88
2023/08/31 03:26:12;;;;;;;2.22;2.03;;;14.30;1.00;;;;;;5050870;28;20400;-88
2023/08/31 03:28:40;;;;;;;3.30;2.03;;;13.30;1.00;;;;;;5051102;28;20465;-88
2023/08/31 03:31:05;;;;;;;3.78;2.25;;;14.00;1.00;;;;;;5050502;28;20469;-88
2023/08/31 03:33:31;;;;;;;2.20;2.00;;;16.50;1.00;;;;;;5050367;28;20829;-88
2023/08/31 03:36:04;;;;;;;4.40;2.05;;;15.60;1.00;;;;;;5051918;28;20384;-87
2023/08/31 03:38:30;;;;;;;2.65;2.17;;;13.70;1.00;;;;;;5050202;28;20947;-89
2023/08/31 03:40:57;;;;;;;3.75;2.50;;;13.80;1.00;;;;;;5050577;28;20405;-88
2023/08/31 03:43:23;;;;;;;4.07;2.60;;;13.80;1.00;;;;;;5050315;28;20393;-89
2023/08/31 03:45:49;;;;;;;4.32;2.50;;;13.90;1.00;;;;;;5051661;28;20447;-89
2023/08/31 03:48:14;;;;;;;3.28;2.38;;;13.60;1.00;;;;;;5049961;28;20413;-89
2023/08/31 03:50:40;;;;;;;2.63;1.80;;;15.90;1.00;;;;;;5036962;28;20490;-89
2023/08/31 03:53:05;;;;;;;4.35;2.40;;;13.80;1.00;;;;;;5031756;28;20433;-89
2023/08/31 03:55:31;;;;;;;3.20;1.90;;;13.90;1.00;;;;;;5032838;28;20395;-88
2023/08/31 03:57:58;;;;;;;2.97;2.27;;;17.00;1.00;;;;;;5057183;28;20395;-87
2023/08/31 04:00:23;;;;;;;4.10;2.30;;;13.90;1.00;;;;;;5056927;28;20391;-86
2023/08/31 04:02:49;;;;;;;4.50;2.30;;;13.00;1.00;;;;;;5045474;28;20407;-88
2023/08/31 04:05:15;;;;;;;4.03;2.40;;;16.30;1.00;;;;;;5030900;28;20387;-89
2023/08/31 04:07:41;;;;;;;6.00;2.40;;;13.90;1.00;;;;;;5044379;28;20896;-89
2023/08/31 04:10:07;;;;;;;5.13;2.25;;;13.80;1.00;;;;;;5067583;28;20409;-88
2023/08/31 04:12:34;;;;;;;3.75;2.30;;;14.00;1.00;;;;;;5076656;28;20416;-86
2023/08/31 04:15:00;;;;;;;3.67;2.35;;;13.90;1.00;;;;;;5076418;28;20413;-88
2023/08/31 04:17:25;;;;;;;2.17;1.83;;;13.90;1.00;;;;;;5074198;28;20396;-88
2023/08/31 04:19:51;;;;;;;5.45;2.58;;;13.70;1.00;;;;;;5067844;28;20396;-88
2023/08/31 04:22:17;;;;;;;3.50;2.78;;;12.20;1.00;;;;;;5062485;28;20392;-87
2023/08/31 04:24:43;;;;;;;5.05;2.28;;;14.00;1.00;;;;;;5067158;28;20465;-89
2023/08/31 04:27:08;;;;;;;3.40;2.30;;;12.30;1.00;;;;;;5066878;28;20416;-89
2023/08/31 04:29:34;;;;;;;3.50;2.37;;;13.70;1.00;;;;;;5063533;28;20427;-88
2023/08/31 04:31:59;;;;;;;3.22;2.50;;;13.70;1.00;;;;;;5063221;28;20412;-88
2023/08/31 04:34:26;;;;;;;4.50;2.50;;;16.10;1.00;;;;;;5058218;28;20396;-88
2023/08/31 04:36:52;;;;;;;4.78;2.40;;;14.90;1.00;;;;;;5060198;28;20412;-89
2023/08/31 04:39:17;;;;;;;3.75;3.20;;;13.90;1.00;;;;;;5063734;28;20519;-88
2023/08/31 04:41:43;;;;;;;2.40;2.20;;;15.50;1.00;;;;;;5072273;28;20393;-89
2023/08/31 04:44:09;;;;;;;2.75;2.20;;;14.60;1.00;;;;;;5060969;28;20402;-88
2023/08/31 04:46:34;;;;;;;4.03;2.40;;;15.40;1.00;;;;;;5055599;28;20874;-88
2023/08/31 04:49:01;;;;;;;5.17;2.57;;;13.80;1.00;;;;;;5056784;28;20434;-89
2023/08/31 04:51:35;;;;;;;2.72;2.20;;;14.00;1.00;;;;;;5056043;28;20389;-88
2023/08/31 04:54:02;;;;;;;3.45;2.42;;;16.20;1.00;;;;;;5066888;28;20389;-89
2023/08/31 04:56:32;;;;;;;3.83;2.60;;;17.10;1.00;;;;;;5060370;28;20445;-88
2023/08/31 04:58:58;;;;;;;4.43;2.97;;;14.00;1.00;;;;;;5063636;28;20416;-88
2023/08/31 05:01:24;;;;;;;2.80;2.50;;;15.90;1.00;;;;;;5073899;28;20400;-89
2023/08/31 05:03:49;;;;;;;2.75;2.17;;;13.60;1.00;;;;;;5059428;28;20385;-88
2023/08/31 05:06:15;;;;;;;3.40;2.47;;;14.10;1.00;;;;;;5054045;28;20403;-88
2023/08/31 05:08:40;;;;;;;3.42;2.45;;;14.30;1.00;;;;;;5067980;28;20417;-89
2023/08/31 05:11:06;;;;;;;3.08;2.30;;;14.10;1.00;;;;;;5070829;28;20381;-88
2023/08/31 05:13:31;;;;;;;2.80;2.40;;;17.50;1.00;;;;;;5071132;28;20399;-88
2023/08/31 05:15:57;;;;;;;2.58;1.90;;;14.30;1.00;;;;;;5073807;28;20392;-88
2023/08/31 05:18:22;;;;;;;3.50;2.10;;;14.30;1.00;;;;;;5070997;28;20389;-87
2023/08/31 05:20:51;;;;;;;2.60;2.17;;;14.50;1.00;;;;;;5067301;28;20397;-88
2023/08/31 05:23:16;;;;;;;2.53;2.00;;;14.10;1.00;;;;;;5070084;28;20461;-89
2023/08/31 05:25:44;;;;;;;3.93;2.30;;;14.20;1.00;;;;;;5070652;28;20393;-89
2023/08/31 05:28:10;;;;;;;3.80;2.40;;;17.20;1.00;;;;;;5070158;28;20412;-89
2023/08/31 05:30:36;;;;;;;2.30;1.70;;;17.00;1.00;;;;;;5073261;28;20394;-88
2023/08/31 05:33:02;;;;;;;4.53;2.20;;;14.50;1.00;;;;;;5069950;28;20420;-88
2023/08/31 05:35:28;;;;;;;3.50;2.53;;;14.70;1.00;;;;;;5071940;28;20401;-88
2023/08/31 05:37:53;;;;;;;2.40;2.00;;;15.90;1.00;;;;;;5066115;28;20393;-88
2023/08/31 05:40:19;;;;;;;4.27;2.43;;;13.80;1.00;;;;;;5058214;28;20409;-89
2023/08/31 05:42:44;;;;;;;3.15;2.10;;;15.60;1.00;;;;;;5055923;28;20464;-89
2023/08/31 05:45:10;;;;;;;3.97;2.20;;;14.80;1.00;;;;;;5053744;28;20386;-89
2023/08/31 05:47:36;;;;;;;2.63;2.30;;;14.70;1.00;;;;;;5053702;28;20406;-87
2023/08/31 05:50:02;;;;;;;2.28;2.08;;;14.90;1.00;;;;;;5053033;28;20393;-88
2023/08/31 05:52:28;;;;;;;3.13;2.13;;;14.90;1.00;;;;;;5055153;28;20413;-89
2023/08/31 05:54:53;;;;;;;2.27;1.97;;;14.70;1.00;;;;;;5053603;28;20381;-88
2023/08/31 05:57:20;;;;;;;2.80;1.97;;;14.90;1.00;;;;;;5054107;28;20386;-88
2023/08/31 05:59:47;;;;;;;2.20;2.00;;;14.60;1.00;;;;;;5054079;28;20401;-89
2023/08/31 06:02:12;;;;;;;3.30;2.28;;;16.70;1.00;;;;;;5058340;28;20385;-88
2023/08/31 06:04:38;;;;;;;3.60;2.13;;;14.50;1.00;;;;;;5080032;28;20385;-88
2023/08/31 06:07:04;;;;;;;4.43;2.37;;;14.90;1.00;;;;;;5078838;28;20416;-89
2023/08/31 06:09:29;;;;;;;2.97;2.00;;;15.00;1.00;;;;;;5078097;28;20409;-88
2023/08/31 06:11:55;;;;;;;5.00;2.40;;;14.80;1.00;;;;;;5056084;28;20413;-88
2023/08/31 06:14:20;;;;;;;2.47;2.20;;;14.80;1.00;;;;;;5054717;28;20462;-90
2023/08/31 06:16:46;;;;;;;3.63;2.30;;;15.00;1.00;;;;;;5073573;28;20420;-88
2023/08/31 06:19:15;;;;;;;5.20;2.50;;;15.00;1.00;;;;;;5071937;28;20398;-88
2023/08/31 06:21:41;;;;;;;4.70;2.50;;;14.70;1.00;;;;;;5063065;28;20411;-88
2023/08/31 06:24:09;;;;;;;3.70;2.37;;;15.50;1.00;;;;;;5053200;28;20912;-87
2023/08/31 06:26:35;;;;;;;2.20;2.00;;;15.00;1.00;;;;;;5053305;28;20662;-88
2023/08/31 06:29:03;;;;;;;2.00;1.90;;;13.90;1.00;;;;;;5052753;28;20429;-88
2023/08/31 06:31:28;;;;;;;4.20;2.50;;;14.80;1.00;;;;;;5051724;28;20523;-89
2023/08/31 06:33:54;;;;;;;4.57;2.60;;;14.50;1.00;;;;;;5055698;28;20431;-88
2023/08/31 06:36:20;;;;;;;3.00;2.40;;;14.90;1.00;;;;;;5052978;28;20469;-88
2023/08/31 06:38:45;;;;;;;5.17;2.43;;;14.40;1.00;;;;;;5052777;28;20397;-87
2023/08/31 06:41:11;;;;;;;4.70;2.25;;;15.10;1.00;;;;;;5052521;28;20816;-87
2023/08/31 06:43:36;;;;;;;3.03;2.30;;;16.00;1.00;;;;;;5056263;28;20395;-88
2023/08/31 06:46:02;;;;;;;4.30;2.10;;;15.20;1.00;;;;;;5052765;28;20382;-88
2023/08/31 06:48:27;;;;;;;3.28;2.05;;;16.80;1.00;;;;;;5053412;28;20496;-87
2023/08/31 06:50:53;;;;;;;3.60;2.40;;;15.30;1.00;;;;;;5052393;28;20384;-88
2023/08/31 06:53:18;;;;;;;4.20;2.30;;;15.30;1.00;;;;;;5052411;28;20394;-88
2023/08/31 06:55:44;;;;;;;3.20;2.20;;;15.30;1.00;;;;;;5052411;28;20401;-88
2023/08/31 06:58:10;;;;;;;4.63;2.20;;;15.40;1.00;;;;;;5052247;28;20919;-87
2023/08/31 07:00:35;;;;;;;3.30;2.00;;;16.60;1.00;;;;;;5051897;28;20385;-88
2023/08/31 07:03:01;;;;;;;4.47;2.10;;;16.70;1.00;;;;;;5051023;28;20396;-87
2023/08/31 07:05:27;;;;;;;5.10;2.30;;;15.70;1.00;;;;;;5052785;28;20388;-88
2023/08/31 07:07:56;;;;;;;2.72;2.10;;;15.70;1.00;;;;;;5052144;28;20412;-88
2023/08/31 07:10:22;;;;;;;4.22;2.20;;;15.60;1.00;;;;;;5051682;28;20827;-88
2023/08/31 07:12:47;;;;;;;3.00;2.00;;;15.70;1.00;;;;;;5053015;28;20424;-89
2023/08/31 07:15:13;;;;;;;3.47;2.00;;;15.80;1.00;;;;;;5051705;28;20389;-87
2023/08/31 07:17:39;;;;;;;3.80;1.90;;;15.80;1.00;;;;;;5050337;28;20431;-87
2023/08/31 07:20:07;;;;;;;3.50;2.10;;;15.60;1.00;;;;;;5052735;28;20386;-87
2023/08/31 07:22:34;;;;;;;2.72;2.45;;;15.90;1.00;;;;;;5052024;28;20385;-88
2023/08/31 07:25:00;;;;;;;2.40;1.80;;;16.20;1.00;;;;;;5051369;28;20393;-87
2023/08/31 07:27:26;;;;;;;3.40;2.20;;;16.00;1.00;;;;;;5052868;28;20406;-87
2023/08/31 07:29:54;;;;;;;2.90;1.83;;;16.00;1.00;;;;;;5052172;28;20382;-86
2023/08/31 07:32:20;;;;;;;5.07;2.40;;;15.80;1.00;;;;;;5053388;28;20385;-87
2023/08/31 07:34:45;;;;;;;3.45;2.40;;;15.90;1.00;;;;;;5071064;28;20479;-85
2023/08/31 07:37:11;;;;;;;5.33;2.20;;;16.10;1.00;;;;;;5076684;28;20389;-85
2023/08/31 07:39:36;;;;;;;5.43;2.43;;;16.10;1.00;;;;;;5076413;28;20419;-86
2023/08/31 07:42:02;;;;;;;2.97;2.17;;;16.20;1.00;;;;;;5076770;28;20389;-86
2023/08/31 07:44:27;;;;;;;4.07;2.00;;;16.20;1.00;;;;;;5057972;28;20425;-86
2023/08/31 07:46:53;;;;;;;4.07;2.10;;;16.20;1.00;;;;;;5045330;28;20495;-88
2023/08/31 07:49:19;;;;;;;2.03;1.90;;;16.60;1.00;;;;;;5047982;28;20429;-87
2023/08/31 07:51:44;;;;;;;4.70;2.10;;;16.00;1.00;;;;;;5061474;28;20389;-87
2023/08/31 07:54:10;;;;;;;4.27;2.10;;;17.40;1.00;;;;;;5070063;28;20393;-87
2023/08/31 07:56:35;;;;;;;2.70;2.03;;;16.00;1.00;;;;;;5070630;28;20393;-87
2023/08/31 07:59:01;;;;;;;2.40;1.90;;;16.80;1.00;;;;;;5072888;28;20385;-88
2023/08/31 08:01:27;;;;;;;3.20;2.00;;;18.60;1.00;;;;;;5065169;28;20418;-87
2023/08/31 08:03:52;;;;;;;5.72;2.30;;;15.80;1.00;;;;;;5060636;28;20453;-88
2023/08/31 08:06:18;;;;;;;2.72;1.98;;;16.50;1.00;;;;;;5052103;28;20383;-87
2023/08/31 08:08:44;;;;;;;4.50;2.20;;;16.70;1.00;;;;;;5104011;22;20889;-87
2023/08/31 08:11:09;;;;;;;5.03;2.10;;;16.60;1.00;;;;;;5056216;28;20394;-87
2023/08/31 08:13:35;;;;;;;2.88;2.05;;;16.70;1.00;;;;;;5050728;28;20389;-87
2023/08/31 08:16:01;;;;;;;3.23;2.00;;;16.80;1.00;;;;;;5050601;28;20444;-87
2023/08/31 08:18:26;;;;;;;2.70;2.20;;;15.70;1.00;;;;;;5053554;28;20389;-86
2023/08/31 08:20:52;;;;;;;4.23;2.50;;;16.90;1.00;;;;;;5055666;28;20419;-87
2023/08/31 08:23:18;;;;;;;2.72;2.00;;;16.30;1.00;;;;;;5056692;28;20880;-86
2023/08/31 08:25:43;;;;;;;3.53;2.10;;;17.10;1.00;;;;;;5055734;28;20457;-86
2023/08/31 08:28:09;;;;;;;3.23;2.10;;;17.20;1.00;;;;;;5053987;28;20409;-85
2023/08/31 08:30:34;;;;;;;2.88;1.70;;;18.00;1.00;;;;;;5057556;28;20444;-86
2023/08/31 08:33:00;;;;;;;1.80;1.50;;;17.30;1.00;;;;;;5055959;28;20393;-86
2023/08/31 08:35:25;;;;;;;2.50;1.70;;;17.30;1.00;;;;;;5063033;28;20365;-87
2023/08/31 08:37:52;;;;;;;3.83;2.05;;;17.50;1.00;;;;;;5074967;28;20389;-87
2023/08/31 08:40:19;;;;;;;3.60;1.60;;;17.50;1.00;;;;;;5075150;28;20380;-88
2023/08/31 08:42:47;;;;;;;3.10;1.60;;;17.70;1.00;;;;;;5068762;28;20391;-86
2023/08/31 08:45:16;;;;;;;1.90;1.70;;;17.80;1.00;;;;;;5035870;28;20401;-85
2023/08/31 08:47:46;;;;;;;3.20;1.80;;;17.80;1.00;;;;;;5046304;28;20405;-84
2023/08/31 08:50:12;;;;;;;2.07;1.60;;;17.90;1.00;;;;;;5071385;28;20379;-87
2023/08/31 08:52:39;;;;;;;3.00;1.67;;;17.90;1.00;;;;;;5074462;28;20441;-87
2023/08/31 08:55:05;;;;;;;3.05;1.73;;;17.80;1.00;;;;;;5074450;28;20389;-86
2023/08/31 08:57:31;;;;;;;2.40;1.65;;;17.90;1.00;;;;;;5057623;28;20790;-86
2023/08/31 08:59:58;;;;;;;4.50;1.80;;;17.50;1.00;;;;;;5051231;28;20391;-86
2023/08/31 09:02:23;;;;;;;3.20;2.00;;;18.10;1.00;;;;;;5051534;28;20389;-86
2023/08/31 09:04:52;;;;;;;2.38;1.70;;;17.20;1.00;;;;;;5054407;28;20401;-87
2023/08/31 09:07:18;;;;;;;4.05;2.00;;;18.00;1.00;;;;;;5051280;28;20441;-87
2023/08/31 09:09:51;;;;;;;2.50;1.77;;;18.10;1.00;;;;;;5049695;28;20432;-89
2023/08/31 09:12:17;;;;;;;4.30;1.67;;;18.20;1.00;;;;;;5050379;28;20381;-87
2023/08/31 09:14:43;;;;;;;3.90;1.88;;;17.20;1.00;;;;;;5051570;28;20385;-85
2023/08/31 09:17:08;;;;;;;4.27;1.90;;;18.60;1.00;;;;;;5052886;28;20386;-87
2023/08/31 09:19:34;;;;;;;3.20;1.92;;;18.20;1.00;;;;;;5051651;28;20396;-88
2023/08/31 09:22:00;;;;;;;4.68;1.90;;;18.40;1.00;;;;;;5050154;28;20735;-88
2023/08/31 09:24:26;;;;;;;4.30;2.50;;;18.50;1.00;;;;;;5051509;28;20407;-88
2023/08/31 09:26:58;;;;;;;4.80;2.00;;;19.20;1.00;;;;;;5056663;28;20481;-85
2023/08/31 09:29:24;;;;;;;2.78;1.70;;;18.40;1.00;;;;;;5061727;28;20386;-87
2023/08/31 09:31:50;;;;;;;3.20;1.90;;;17.70;1.00;;;;;;5076064;28;20370;-86
2023/08/31 09:34:17;;;;;;;2.63;1.80;;;18.60;1.00;;;;;;5065787;28;20971;-87
2023/08/31 09:36:43;;;;;;;2.92;1.92;;;17.60;1.00;;;;;;5059654;28;20439;-86
2023/08/31 09:39:10;;;;;;;4.22;2.20;;;17.70;1.00;;;;;;5054985;28;20468;-87
2023/08/31 09:41:51;;;;;;;2.70;2.00;;;19.00;1.00;;;;;;5053855;28;20382;-87
2023/08/31 09:44:19;;;;;;;3.65;2.10;;;18.50;1.00;;;;;;5056899;28;20394;-86
2023/08/31 09:46:46;;;;;;;4.40;2.03;;;18.50;1.00;;;;;;5057239;28;20386;-86
2023/08/31 09:49:14;;;;;;;3.17;2.10;;;18.90;1.00;;;;;;5056703;28;20389;-86
2023/08/31 09:51:44;;;;;;;3.80;2.00;;;18.70;1.00;;;;;;5040743;28;20399;-86
2023/08/31 09:54:15;;;;;;;4.75;2.10;;;18.30;1.00;;;;;;5035703;28;20388;-87
2023/08/31 09:56:45;;;;;;;3.80;2.00;;;18.30;1.00;;;;;;5038400;28;20419;-86
2023/08/31 09:59:12;;;;;;;4.45;2.50;;;18.50;1.00;;;;;;5037178;28;20482;-86
2023/08/31 10:01:39;;;;;;;3.15;2.05;;;18.50;1.00;;;;;;5040535;28;20387;-85
2023/08/31 10:04:08;;;;;;;3.50;2.10;;;18.60;1.00;;;;;;5039197;28;20794;-86
2023/08/31 10:06:38;;;;;;;4.05;2.28;;;18.60;1.00;;;;;;5038366;28;20451;-86
2023/08/31 10:09:04;;;;;;;5.05;2.00;;;18.90;1.00;;;;;;5046970;28;20774;-87
2023/08/31 10:11:30;;;;;;;4.40;2.20;;;19.00;1.00;;;;;;5053701;28;20389;-86
2023/08/31 10:13:57;;;;;;;2.95;1.65;;;18.90;1.00;;;;;;5054145;28;20389;-87
2023/08/31 10:16:25;;;;;;;4.30;2.00;;;18.90;1.00;;;;;;5056259;28;20873;-87
2023/08/31 10:18:52;;;;;;;4.57;2.20;;;18.90;1.00;;;;;;5054201;28;20892;-86
2023/08/31 10:21:18;;;;;;;3.70;1.70;;;18.90;1.00;;;;;;5034078;28;20411;-88
2023/08/31 10:23:48;;;;;;;3.03;1.83;;;18.90;1.00;;;;;;5034433;28;20903;-87
2023/08/31 10:26:33;;;;;;;4.65;1.92;;;18.90;1.00;;;;;;5034747;28;20445;-87
2023/08/31 10:29:00;;;;;;;3.80;1.90;;;18.80;1.00;;;;;;5037851;28;20407;-86
2023/08/31 10:31:29;;;;;;;2.97;1.85;;;18.60;1.00;;;;;;5041995;28;20416;-85
2023/08/31 10:34:00;;;;;;;3.53;1.70;;;18.80;1.00;;;;;;5058739;28;20397;-86
2023/08/31 10:36:44;;;;;;;3.95;1.80;;;18.90;1.00;;;;;;5058467;28;20382;-85
2023/08/31 10:39:15;;;;;;;3.20;2.30;;;18.00;1.00;;;;;;5052922;28;20423;-82
2023/08/31 10:41:41;;;;;;;3.58;2.00;;;19.20;1.00;;;;;;5053747;28;20477;-82
2023/08/31 10:44:20;;;;;;;4.70;1.80;;;19.40;1.00;;;;;;5037747;28;20426;-82
2023/08/31 10:46:46;;;;;;;4.18;2.03;;;19.40;1.00;;;;;;5033846;28;20437;-82
2023/08/31 10:49:14;;;;;;;3.47;2.00;;;19.40;1.00;;;;;;5042954;28;20377;-82
2023/08/31 10:52:17;;;;;;;4.70;2.28;;;19.10;1.00;;;;;;5054715;28;20393;-84
2023/08/31 10:54:43;;;;;;;4.85;1.70;;;19.00;1.00;;;;;;5051968;28;20393;-85
2023/08/31 10:57:10;;;;;;;6.30;1.90;;;19.00;1.00;;;;;;5045951;28;20417;-86
2023/08/31 10:59:50;;;;;;;2.53;1.67;;;19.00;1.00;;;;;;5037169;28;20387;-86
2023/08/31 11:02:38;;;;;;;3.72;1.85;;;19.30;1.00;;;;;;5038284;28;20382;-85
2023/08/31 11:05:12;;;;;;;2.78;1.92;;;19.10;1.00;;;;;;5035425;28;20395;-88
2023/08/31 11:07:45;;;;;;;7.90;1.97;;;19.40;1.00;;;;;;5042209;28;20948;-86
2023/08/31 11:10:17;;;;;;;3.72;1.80;;;19.30;1.00;;;;;;5040399;28;20397;-86
2023/08/31 11:12:48;;;;;;;3.40;1.90;;;19.30;1.00;;;;;;5048190;28;20386;-85
2023/08/31 11:15:15;;;;;;;3.22;1.80;;;19.10;1.00;;;;;;5046328;28;20385;-86
2023/08/31 11:17:42;;;;;;;2.78;2.00;;;20.10;1.00;;;;;;5043684;28;20385;-87
2023/08/31 11:20:09;;;;;;;3.67;2.00;;;19.00;1.00;;;;;;5039964;28;20457;-87
2023/08/31 11:22:39;;;;;;;3.20;1.60;;;19.00;1.00;;;;;;5037883;28;20391;-87
2023/08/31 11:25:05;;;;;;;2.90;1.90;;;19.80;1.00;;;;;;5051656;28;20893;-88
2023/08/31 11:27:31;;;;;;;2.45;1.90;;;19.40;1.00;;;;;;5038688;28;20504;-86
2023/08/31 11:29:56;;;;;;;4.03;2.08;;;19.30;1.00;;;;;;5048728;28;20519;-86
2023/08/31 11:32:25;;;;;;;2.70;1.67;;;19.30;1.00;;;;;;5044517;28;20776;-84
2023/08/31 11:34:51;;;;;;;3.13;2.10;;;19.20;1.00;;;;;;5048164;28;20388;-87
2023/08/31 11:37:20;;;;;;;3.08;2.10;;;20.50;1.00;;;;;;5046800;28;20397;-84
2023/08/31 11:39:53;;;;;;;4.83;2.20;;;19.30;1.00;;;;;;5045802;28;20391;-85
2023/08/31 11:42:20;;;;;;;4.45;1.70;;;19.50;1.00;;;;;;5044208;28;20386;-86
2023/08/31 11:44:51;;;;;;;4.38;2.10;;;20.00;1.00;;;;;;5038555;28;20406;-87
2023/08/31 11:47:17;;;;;;;2.80;1.90;;;20.40;1.00;;;;;;5041096;28;20830;-85
2023/08/31 11:49:44;;;;;;;2.25;1.38;;;19.70;1.00;;;;;;5039255;28;20431;-86
2023/08/31 11:52:11;;;;;;;2.33;1.77;;;19.90;1.00;;;;;;5042287;28;20931;-87
2023/08/31 11:54:39;;;;;;;4.13;1.70;;;19.80;1.00;;;;;;5042409;28;20513;-86
2023/08/31 11:57:08;;;;;;;4.50;1.95;;;19.90;1.00;;;;;;5041074;28;20390;-85
2023/08/31 11:59:38;;;;;;;3.13;2.10;;;19.90;1.00;;;;;;5043725;28;20402;-86
2023/08/31 12:02:08;;;;;;;4.27;1.83;;;20.30;1.00;;;;;;5041869;28;20395;-85
2023/08/31 12:04:42;;;;;;;2.60;1.50;;;20.50;1.00;;;;;;5043702;28;20395;-87
2023/08/31 12:07:07;;;;;;;3.15;1.70;;;20.20;1.00;;;;;;5039257;28;20781;-86
2023/08/31 12:09:33;;;;;;;3.00;1.90;;;20.50;1.00;;;;;;5039719;28;20409;-86
2023/08/31 12:12:00;;;;;;;3.47;1.77;;;20.60;1.00;;;;;;5042142;28;20465;-84
2023/08/31 12:14:26;;;;;;;4.78;1.52;;;20.30;1.00;;;;;;5040341;28;20393;-86
2023/08/31 12:16:59;;;;;;;2.60;1.83;;;19.90;1.00;;;;;;5041057;28;20386;-87
2023/08/31 12:19:28;;;;;;;4.22;1.83;;;20.30;1.00;;;;;;5061928;28;20417;-87
2023/08/31 12:21:53;;;;;;;4.82;1.80;;;20.30;1.00;;;;;;5053769;28;20754;-85
2023/08/31 12:24:19;;;;;;;4.73;1.80;;;20.00;1.00;;;;;;5045508;28;20394;-85
2023/08/31 12:26:45;;;;;;;3.35;2.00;;;20.20;1.00;;;;;;5049797;28;20385;-87
2023/08/31 12:29:10;;;;;;;2.58;1.60;;;20.10;1.00;;;;;;5040084;28;20919;-84
2023/08/31 12:31:36;;;;;;;2.67;1.87;;;20.10;1.00;;;;;;5053151;28;20397;-84
2023/08/31 12:34:05;;;;;;;3.70;1.70;;;20.20;1.00;;;;;;5056329;28;20389;-85
2023/08/31 12:36:32;;;;;;;3.20;1.90;;;20.50;1.00;;;;;;5053702;28;20393;-85
2023/08/31 12:39:01;;;;;;;4.57;2.00;;;20.50;1.00;;;;;;5056129;28;20393;-85
2023/08/31 12:41:27;;;;;;;4.18;1.80;;;20.80;1.00;;;;;;5054483;28;20393;-84
2023/08/31 12:43:52;;;;;;;3.15;1.70;;;20.90;1.00;;;;;;5037757;28;20419;-84
2023/08/31 12:46:18;;;;;;;4.50;2.03;;;21.00;1.00;;;;;;5044261;28;20837;-83
2023/08/31 12:48:43;;;;;;;2.58;1.90;;;20.90;1.00;;;;;;5051939;28;20495;-84
2023/08/31 12:51:09;;;;;;;4.03;1.90;;;20.70;1.00;;;;;;5052893;28;20435;-83
2023/08/31 12:53:39;;;;;;;2.20;1.70;;;20.70;1.00;;;;;;5053049;28;20374;-84
2023/08/31 12:56:04;;;;;;;2.40;1.50;;;20.70;1.00;;;;;;5051978;28;20389;-84
2023/08/31 12:58:30;;;;;;;2.42;1.50;;;20.80;1.00;;;;;;5054852;28;20472;-82
2023/08/31 13:01:01;;;;;;;1.80;1.60;;;20.90;1.00;;;;;;5057219;28;20903;-83